Overview Statistics Trail Chart Weather Telemetry Raw packets
 

This is the latest recevied weather packets stored in our database for station/object K5DLF-9. If no packets are shown the sender has not sent any weather packets the latest 10 day(s).

<< 1 2 3 4 >>
Time Temp. Humidity Pressure Rain* Wind** Luminosity Snow
1788411338 28.33° C 87% 1011.6 hPa 0 mm - 0 W/m² -
1788409539 28.89° C 86% 1011.5 hPa 0 mm - 0 W/m² -
1788408939 28.89° C 86% 1011.6 hPa 0 mm - 0 W/m² -
1788408340 28.89° C 86% 1011.5 hPa 0 mm - 0 W/m² -
1788404740 28.89° C 87% 1011.3 hPa 0 mm - 0 W/m² -
1788404138 28.89° C 87% 1011 hPa 0 mm - 0 W/m² -
1788401143 29.44° C 86% 1010.7 hPa 0 mm - 0 W/m² -
1788400539 29.44° C 86% 1010.6 hPa 0 mm - 0 W/m² -
1788398739 29.44° C 85% 1010.3 hPa 0 mm - 0 W/m² -
1788396938 30° C 84% 1010.1 hPa 0 mm - 0 W/m² -
1788395139 30.56° C 81% 1009.8 hPa 0 mm - 11 W/m² -
1788390341 32.78° C 74% 1009.6 hPa 0 mm - 102 W/m² -
1788389138 33.33° C 72% 1009.5 hPa 0 mm - 113 W/m² -
1788388538 33.89° C 70% 1009.4 hPa 0 mm - 135 W/m² -
1788386740 33.89° C 68% 1009.5 hPa 0 mm - 239 W/m² -
1788386140 33.89° C 69% 1009.5 hPa 0 mm - 246 W/m² -
1788383739 35° C 67% 1009.6 hPa 0 mm - 193 W/m² -
1788383141 36.11° C 64% 1009.7 hPa 0 mm - 178 W/m² -
1788382567 36.67° C 63% 1009.6 hPa 0 mm - 554 W/m² -
1788380739 37.22° C 61% 1009.9 hPa 0 mm - 684 W/m² -
1788379540 36.67° C 62% 1010.4 hPa 0 mm - 476 W/m² -
1788378941 36.11° C 63% 1010.5 hPa 0 mm - 468 W/m² -
1788375941 36.11° C 66% 1010.9 hPa 0 mm - 287 W/m² -
1788373540 34.44° C 70% 1011.2 hPa 0 mm - 645 W/m² -
1788371139 33.89° C 73% 1012 hPa 0 mm - 316 W/m² -

* Rain latest hour (hover to see other rain measurements)
** Current wind speed in m/s (hover to see current wind gust speed)